createdAt,value
2023-02-11T00:01:29.234Z,99449.22
2023-02-11T00:03:58.154Z,99431.94
2023-02-11T00:06:28.134Z,99412.91
2023-02-11T00:08:56.501Z,99434.50
2023-02-11T00:11:31.678Z,99438.00
2023-02-11T00:14:01.609Z,99431.91
2023-02-11T00:16:30.848Z,99444.00
2023-02-11T00:19:03.172Z,99440.53
2023-02-11T00:21:30.774Z,99447.44
2023-02-11T00:24:00.097Z,99447.44
2023-02-11T00:26:31.489Z,99431.84
2023-02-11T00:29:00.996Z,99443.06
2023-02-11T00:31:28.849Z,99447.38
2023-02-11T00:33:57.101Z,99347.78
2023-02-11T00:36:27.245Z,99451.66
2023-02-11T00:38:56.242Z,99409.25
2023-02-11T00:41:24.509Z,99470.66
2023-02-11T00:43:52.678Z,99442.09
2023-02-11T00:46:20.750Z,99423.88
2023-02-11T00:48:49.085Z,99450.72
2023-02-11T00:51:16.449Z,99460.16
2023-02-11T00:53:44.011Z,99462.72
2023-02-11T00:56:11.564Z,99457.50
2023-02-11T00:58:38.889Z,99448.00
2023-02-11T01:01:06.995Z,99429.81
2023-02-11T01:03:35.226Z,99464.41
2023-02-11T01:06:02.675Z,99459.16
2023-02-11T01:08:30.413Z,99434.09
2023-02-11T01:11:00.719Z,99463.56
2023-02-11T01:13:29.470Z,99452.25
2023-02-11T01:15:57.404Z,99473.00
2023-02-11T01:18:26.030Z,99483.38
2023-02-11T01:20:54.294Z,99477.31
2023-02-11T01:23:22.185Z,99472.06
2023-02-11T01:25:50.380Z,99480.72
2023-02-11T01:28:20.414Z,99451.34
2023-02-11T01:30:48.540Z,99400.16
2023-02-11T01:33:16.604Z,99487.66
2023-02-11T01:35:45.017Z,99489.38
2023-02-11T01:38:29.811Z,99487.59
2023-02-11T01:41:06.245Z,99396.59
2023-02-11T01:43:42.914Z,99492.72
2023-02-11T01:46:23.740Z,99429.50
2023-02-11T01:49:00.142Z,99489.28
2023-02-11T01:51:50.700Z,99485.78
2023-02-11T01:54:41.743Z,99445.09
2023-02-11T01:57:23.328Z,99490.97
2023-02-11T02:00:13.304Z,99485.78
2023-02-11T02:02:44.125Z,99491.84
2023-02-11T02:05:22.225Z,99486.72
2023-02-11T02:08:06.877Z,99488.53
2023-02-11T02:10:37.103Z,99475.66
2023-02-11T02:13:04.604Z,99471.38
2023-02-11T02:15:37.960Z,99482.72
2023-02-11T02:18:20.024Z,99478.44
2023-02-11T02:21:23.400Z,99486.25
2023-02-11T02:24:14.289Z,99488.91
2023-02-11T02:27:00.546Z,99490.66
2023-02-11T02:29:51.977Z,99496.72
2023-02-11T02:32:34.552Z,99489.88
2023-02-11T02:35:09.729Z,99491.59
2023-02-11T02:37:53.642Z,99501.09
2023-02-11T02:40:27.654Z,99456.97
2023-02-11T02:42:55.754Z,99485.59
2023-02-11T02:45:22.974Z,99488.19
2023-02-11T02:47:50.419Z,99392.97
2023-02-11T02:50:25.595Z,99488.16
2023-02-11T02:53:01.815Z,99484.72
2023-02-11T02:55:55.950Z,99489.84
2023-02-11T02:58:54.359Z,99488.97
2023-02-11T03:02:06.712Z,99474.28
2023-02-11T03:04:49.042Z,99480.34
2023-02-11T03:07:45.418Z,99482.94
2023-02-11T03:10:21.623Z,99476.88
2023-02-11T03:12:52.564Z,99479.47
2023-02-11T03:15:24.444Z,99398.97
2023-02-11T03:18:00.979Z,99457.81
2023-02-11T03:20:33.457Z,99482.00
2023-02-11T03:23:11.232Z,99484.63
2023-02-11T03:25:46.233Z,99481.16
2023-02-11T03:28:34.116Z,99445.66
2023-02-11T03:31:20.693Z,99372.03
2023-02-11T03:34:18.732Z,99469.03
2023-02-11T03:37:04.715Z,99472.44
2023-02-11T03:39:47.018Z,99479.34
2023-02-11T03:42:16.380Z,99459.44
2023-02-11T03:44:53.753Z,99457.66
2023-02-11T03:47:26.579Z,99467.09
2023-02-11T03:49:57.933Z,99462.75
2023-02-11T03:52:26.999Z,99465.31
2023-02-11T03:54:58.423Z,99460.09
2023-02-11T03:57:26.011Z,99466.13
2023-02-11T03:59:58.509Z,99453.97
2023-02-11T04:02:29.768Z,99453.97
2023-02-11T04:04:57.093Z,99458.25
2023-02-11T04:07:24.628Z,99342.19
2023-02-11T04:09:52.484Z,99394.06
2023-02-11T04:12:20.543Z,99457.34
2023-02-11T04:14:48.157Z,99415.78
2023-02-11T04:17:15.744Z,99447.81
2023-02-11T04:19:43.268Z,99464.19
2023-02-11T04:22:10.834Z,99459.00
2023-02-11T04:24:38.414Z,99351.59
2023-02-11T04:27:06.029Z,99445.09
2023-02-11T04:29:33.551Z,99452.03
2023-02-11T04:32:01.495Z,99444.19
2023-02-11T04:34:28.994Z,99310.84
2023-02-11T04:36:56.314Z,99459.72
2023-02-11T04:39:23.929Z,99416.44
2023-02-11T04:41:51.407Z,99434.59
2023-02-11T04:44:18.961Z,99423.34
2023-02-11T04:46:46.672Z,99450.19
2023-02-11T04:49:16.186Z,99343.59
2023-02-11T04:51:47.600Z,99334.94
2023-02-11T04:54:20.299Z,99453.59
2023-02-11T04:56:49.771Z,99457.88
2023-02-11T04:59:17.391Z,99425.81
2023-02-11T05:01:47.260Z,99455.31
2023-02-11T05:04:14.994Z,99441.44
2023-02-11T05:06:42.352Z,99457.81
2023-02-11T05:09:12.374Z,99356.59
2023-02-11T05:11:40.273Z,99452.78
2023-02-11T05:14:07.955Z,99347.22
2023-02-11T05:16:35.505Z,99420.84
2023-02-11T05:19:03.263Z,99446.03
2023-02-11T05:21:30.778Z,99458.16
2023-02-11T05:23:58.920Z,99445.28
2023-02-11T05:26:27.007Z,99442.75
2023-02-11T05:28:54.268Z,99409.91
2023-02-11T05:31:22.060Z,99458.44
2023-02-11T05:33:49.393Z,99443.81
2023-02-11T05:36:17.013Z,99448.22
2023-02-11T05:38:44.554Z,99447.38
2023-02-11T05:41:12.459Z,99446.53
2023-02-11T05:43:40.084Z,99424.94
2023-02-11T05:46:07.911Z,99342.72
2023-02-11T05:48:35.477Z,99450.06
2023-02-11T05:51:03.053Z,99422.38
2023-02-11T05:53:30.474Z,99441.41
2023-02-11T05:55:57.998Z,99449.22
2023-02-11T05:58:25.371Z,99418.97
2023-02-11T06:00:52.738Z,99450.97
2023-02-11T06:03:20.398Z,99444.03
2023-02-11T06:05:50.586Z,99350.63
2023-02-11T06:08:18.277Z,99444.09
2023-02-11T06:10:46.446Z,99254.66
2023-02-11T06:13:13.942Z,99444.94
2023-02-11T06:15:41.524Z,99260.75
2023-02-11T06:18:09.869Z,99457.03
2023-02-11T06:20:37.529Z,99436.28
2023-02-11T06:23:04.938Z,99447.53
2023-02-11T06:25:32.316Z,99412.06
2023-02-11T06:27:59.816Z,99431.13
2023-02-11T06:30:27.554Z,99431.97
2023-02-11T06:32:55.136Z,99442.38
2023-02-11T06:35:22.354Z,99432.00
2023-02-11T06:37:49.975Z,99429.38
2023-02-11T06:40:20.323Z,99443.22
2023-02-11T06:42:47.847Z,99441.50
2023-02-11T06:45:15.697Z,99431.97
2023-02-11T06:47:43.083Z,99416.41
2023-02-11T06:50:14.093Z,99323.03
2023-02-11T06:52:42.114Z,99440.63
2023-02-11T06:55:09.603Z,99405.19
2023-02-11T06:57:37.071Z,99431.03
2023-02-11T07:00:05.887Z,99317.72
2023-02-11T07:02:33.576Z,99407.38
2023-02-11T07:05:01.084Z,99424.53
2023-02-11T07:07:34.113Z,99430.25
2023-02-11T07:10:04.158Z,99421.50
2023-02-11T07:12:32.247Z,99425.22
2023-02-11T07:14:59.677Z,99431.66
2023-02-11T07:17:27.638Z,99439.34
2023-02-11T07:19:55.075Z,99440.66
2023-02-11T07:22:22.613Z,99434.63
2023-02-11T07:24:50.190Z,99344.22
2023-02-11T07:27:17.727Z,99434.88
2023-02-11T07:29:47.305Z,99368.00
2023-02-11T07:32:14.800Z,99426.00
2023-02-11T07:34:42.259Z,99434.28
2023-02-11T07:37:09.689Z,99401.16
2023-02-11T07:39:37.204Z,99322.03
2023-02-11T07:42:04.831Z,99411.38
2023-02-11T07:44:33.648Z,99420.44
2023-02-11T07:47:01.231Z,99345.94
2023-02-11T07:49:29.354Z,99351.28
2023-02-11T07:51:57.128Z,99411.19
2023-02-11T07:54:24.658Z,99351.53
2023-02-11T07:56:51.943Z,99342.84
2023-02-11T07:59:19.583Z,99422.69
2023-02-11T08:01:46.915Z,99417.66
2023-02-11T08:04:14.417Z,99385.13
2023-02-11T08:06:43.622Z,99422.22
2023-02-11T08:09:16.504Z,99410.25
2023-02-11T08:11:44.857Z,99420.81
2023-02-11T08:14:12.763Z,99332.78
2023-02-11T08:16:40.961Z,99399.94
2023-02-11T08:19:12.862Z,99396.41
2023-02-11T08:21:40.787Z,99316.97
2023-02-11T08:24:09.125Z,99389.50
2023-02-11T08:26:37.164Z,99393.84
2023-02-11T08:29:11.637Z,99261.09
2023-02-11T08:31:41.718Z,99393.19
2023-02-11T08:34:11.602Z,99302.56
2023-02-11T08:36:40.203Z,99374.97
2023-02-11T08:39:20.307Z,99373.09
2023-02-11T08:41:50.334Z,99368.81
2023-02-11T08:44:19.342Z,99369.63
2023-02-11T08:46:47.803Z,99373.16
2023-02-11T08:49:15.825Z,99368.94
2023-02-11T08:51:44.095Z,99365.56
2023-02-11T08:54:12.121Z,99356.19
2023-02-11T08:56:39.907Z,99358.94
2023-02-11T08:59:09.641Z,99194.94
2023-02-11T09:01:37.427Z,99345.03
2023-02-11T09:04:05.170Z,99340.69
2023-02-11T09:06:33.274Z,99331.13
2023-02-11T09:09:00.814Z,99318.00
2023-02-11T09:11:34.779Z,99288.69
2023-02-11T09:14:04.281Z,99198.88
2023-02-11T09:16:35.851Z,99184.25
2023-02-11T09:19:05.867Z,99287.63
2023-02-11T09:21:33.682Z,99288.44
2023-02-11T09:24:01.514Z,99222.75
2023-02-11T09:26:32.318Z,99274.41
2023-02-11T09:29:00.524Z,99262.25
2023-02-11T09:31:30.132Z,99176.88
2023-02-11T09:34:00.867Z,99259.69
2023-02-11T09:36:30.510Z,99258.00
2023-02-11T09:39:02.723Z,99231.44
2023-02-11T09:41:41.776Z,99241.06
2023-02-11T09:44:20.301Z,99249.88
2023-02-11T09:46:55.140Z,99243.91
2023-02-11T09:49:30.769Z,99246.53
2023-02-11T09:52:08.204Z,99235.28
2023-02-11T09:54:56.301Z,99234.53
2023-02-11T09:57:29.407Z,99227.66
2023-02-11T09:59:58.189Z,99229.38
2023-02-11T10:03:03.911Z,99223.38
2023-02-11T10:06:20.546Z,99222.53
2023-02-11T10:09:25.459Z,99224.28
2023-02-11T10:12:02.230Z,99206.94
2023-02-11T10:14:49.548Z,99215.50
2023-02-11T10:17:38.338Z,99206.03
2023-02-11T10:20:26.816Z,99212.09
2023-02-11T10:22:59.403Z,99210.38
2023-02-11T10:25:34.276Z,99190.47
2023-02-11T10:28:23.965Z,99185.31
2023-02-11T10:31:16.096Z,99180.03
2023-02-11T10:33:53.985Z,99167.00
2023-02-11T10:36:24.432Z,99099.03
2023-02-11T10:38:52.126Z,99155.78
2023-02-11T10:41:30.653Z,99144.50
2023-02-11T10:44:01.025Z,99154.75
2023-02-11T10:46:36.970Z,99139.16
2023-02-11T10:49:04.475Z,99054.72
2023-02-11T10:51:34.397Z,99117.53
2023-02-11T10:54:04.756Z,99121.69
2023-02-11T10:56:36.890Z,99122.47
2023-02-11T10:59:21.594Z,99123.28
2023-02-11T11:02:23.806Z,99096.41
2023-02-11T11:04:57.946Z,99095.69
2023-02-11T11:07:33.799Z,99090.44
2023-02-11T11:10:08.845Z,99080.03
2023-02-11T11:12:43.254Z,99093.69
2023-02-11T11:15:10.662Z,99084.06
2023-02-11T11:17:38.750Z,99091.84
2023-02-11T11:20:27.863Z,99068.56
2023-02-11T11:23:17.228Z,99070.41
2023-02-11T11:25:59.624Z,99067.78
2023-02-11T11:28:30.484Z,98865.50
2023-02-11T11:31:00.054Z,99051.47
2023-02-11T11:33:31.519Z,99030.69
2023-02-11T11:36:17.138Z,99045.44
2023-02-11T11:38:50.717Z,99028.06
2023-02-11T11:41:27.895Z,99027.28
2023-02-11T11:44:00.413Z,99019.53
2023-02-11T11:46:31.046Z,99013.44
2023-02-11T11:49:20.828Z,99019.56
2023-02-11T11:52:05.256Z,98992.94
2023-02-11T11:54:35.030Z,98898.41
2023-02-11T11:57:15.813Z,99004.22
2023-02-11T11:59:43.146Z,98996.56
2023-02-11T12:02:32.514Z,98987.09
2023-02-11T12:05:13.367Z,98986.28
2023-02-11T12:08:02.304Z,98981.97
2023-02-11T12:10:53.642Z,98977.66
2023-02-11T12:13:21.235Z,98983.59
2023-02-11T12:16:03.509Z,98955.13
2023-02-11T12:18:54.250Z,98972.47
2023-02-11T12:21:24.800Z,98971.63
2023-02-11T12:24:10.258Z,98973.28
2023-02-11T12:26:57.100Z,98956.84
2023-02-11T12:29:27.402Z,98968.00
2023-02-11T12:32:17.742Z,98951.59
2023-02-11T12:35:06.917Z,98947.28
2023-02-11T12:37:56.121Z,98939.59
2023-02-11T12:40:36.443Z,98942.13
2023-02-11T12:43:19.096Z,98930.81
2023-02-11T12:46:15.256Z,98924.84
2023-02-11T12:48:51.643Z,98917.91
2023-02-11T12:52:09.082Z,98914.47
2023-02-11T12:54:47.079Z,98912.84
2023-02-11T12:57:22.210Z,98902.38
2023-02-11T13:00:15.010Z,98898.84
2023-02-11T13:03:06.295Z,98878.94
2023-02-11T13:05:57.548Z,98872.97
2023-02-11T13:08:54.506Z,98869.66
2023-02-11T13:11:28.882Z,98855.88
2023-02-11T13:14:32.990Z,98852.50
2023-02-11T13:17:01.155Z,98811.88
2023-02-11T13:19:42.861Z,98754.38
2023-02-11T13:22:20.068Z,98823.09
2023-02-11T13:24:58.663Z,98817.09
2023-02-11T13:27:43.105Z,98793.00
2023-02-11T13:30:19.890Z,98821.41
2023-02-11T13:32:56.016Z,98814.56
2023-02-11T13:35:31.245Z,98801.78
2023-02-11T13:38:01.487Z,98790.41
2023-02-11T13:40:35.660Z,98741.47
2023-02-11T13:43:06.575Z,98780.13
2023-02-11T13:45:49.169Z,98772.31
2023-02-11T13:48:31.349Z,98761.16
2023-02-11T13:51:03.051Z,98731.88
2023-02-11T13:53:44.214Z,98731.06
2023-02-11T13:56:36.252Z,98750.16
2023-02-11T13:59:07.796Z,98735.47
2023-02-11T14:02:19.856Z,98738.97
2023-02-11T14:05:24.332Z,98720.84
2023-02-11T14:08:28.238Z,98717.34
2023-02-11T14:11:12.806Z,98696.63
2023-02-11T14:13:49.494Z,98697.56
2023-02-11T14:16:31.554Z,98689.81
2023-02-11T14:19:06.536Z,98670.78
2023-02-11T14:21:43.345Z,98667.31
2023-02-11T14:24:13.214Z,98662.97
2023-02-11T14:27:02.178Z,98581.44
2023-02-11T14:29:33.704Z,98651.84
2023-02-11T14:32:16.238Z,98640.59
2023-02-11T14:35:22.787Z,98640.66
2023-02-11T14:38:07.116Z,98620.84
2023-02-11T14:41:02.341Z,98626.00
2023-02-11T14:43:40.396Z,98516.94
2023-02-11T14:46:08.976Z,98535.72
2023-02-11T14:48:46.035Z,98600.00
2023-02-11T14:51:15.220Z,98595.66
2023-02-11T14:53:51.669Z,98588.72
2023-02-11T14:56:19.220Z,98583.53
2023-02-11T14:58:49.246Z,98460.81
2023-02-11T15:01:29.438Z,98574.88
2023-02-11T15:03:58.489Z,98564.44
2023-02-11T15:06:31.809Z,98567.03
2023-02-11T15:09:25.629Z,98551.53
2023-02-11T15:11:53.838Z,98542.03
2023-02-11T15:14:30.210Z,98505.88
2023-02-11T15:17:00.955Z,98529.06
2023-02-11T15:19:39.804Z,98536.81
2023-02-11T15:22:29.780Z,98521.31
2023-02-11T15:25:10.713Z,98522.16
2023-02-11T15:27:49.636Z,98519.56
2023-02-11T15:30:23.019Z,98518.72
2023-02-11T15:32:59.239Z,98509.16
2023-02-11T15:35:30.262Z,98428.56
2023-02-11T15:37:59.135Z,98494.50
2023-02-11T15:40:30.018Z,98508.22
2023-02-11T15:43:03.627Z,98497.78
2023-02-11T15:45:33.884Z,98484.84
2023-02-11T15:48:18.783Z,98488.38
2023-02-11T15:50:55.799Z,98486.63
2023-02-11T15:53:34.034Z,98477.19
2023-02-11T15:56:19.571Z,98465.94
2023-02-11T15:58:50.488Z,98458.22
2023-02-11T16:01:18.294Z,98471.03
2023-02-11T16:03:50.948Z,98467.59
2023-02-11T16:06:27.043Z,98365.50
2023-02-11T16:09:00.673Z,98457.25
2023-02-11T16:11:33.732Z,98425.56
2023-02-11T16:14:06.565Z,98448.59
2023-02-11T16:16:35.027Z,98453.72
2023-02-11T16:19:06.174Z,98372.34
2023-02-11T16:21:39.391Z,98446.81
2023-02-11T16:24:21.780Z,98325.94
2023-02-11T16:26:52.311Z,98434.69
2023-02-11T16:29:25.288Z,98412.31
2023-02-11T16:31:54.659Z,98420.78
2023-02-11T16:34:26.183Z,98404.38
2023-02-11T16:36:53.834Z,98396.66
2023-02-11T16:39:22.612Z,98410.47
2023-02-11T16:41:52.324Z,98420.91
2023-02-11T16:44:20.324Z,98396.66
2023-02-11T16:46:48.286Z,98281.88
2023-02-11T16:49:24.633Z,98309.25
2023-02-11T16:51:56.683Z,98372.53
2023-02-11T16:54:24.290Z,98351.97
2023-02-11T16:56:52.013Z,98255.97
2023-02-11T16:59:19.953Z,98344.88
2023-02-11T17:01:49.011Z,98365.41
2023-02-11T17:04:24.107Z,98355.94
2023-02-11T17:06:51.599Z,98192.44
2023-02-11T17:09:21.598Z,98296.75
2023-02-11T17:11:50.050Z,98342.94
2023-02-11T17:14:18.574Z,98330.88
2023-02-11T17:16:46.855Z,98324.84
2023-02-11T17:19:17.254Z,98338.66
2023-02-11T17:21:46.999Z,98322.22
2023-02-11T17:24:15.304Z,98210.94
2023-02-11T17:26:44.433Z,98310.91
2023-02-11T17:29:15.622Z,98177.53
2023-02-11T17:31:43.388Z,98300.56
2023-02-11T17:34:11.372Z,98194.63
2023-02-11T17:36:41.505Z,98200.53
2023-02-11T17:39:09.205Z,98200.34
2023-02-11T17:41:38.075Z,98271.44
2023-02-11T17:44:07.412Z,98288.50
2023-02-11T17:46:36.293Z,98275.53
2023-02-11T17:49:04.588Z,98279.94
2023-02-11T17:51:34.811Z,98276.38
2023-02-11T17:54:06.264Z,98269.47
2023-02-11T17:56:35.535Z,98261.59
2023-02-11T17:59:04.620Z,98121.47
2023-02-11T18:01:33.802Z,98220.44
2023-02-11T18:04:02.404Z,98243.44
2023-02-11T18:06:29.888Z,98240.94
2023-02-11T18:09:04.542Z,98243.41
2023-02-11T18:11:34.310Z,98222.63
2023-02-11T18:14:03.203Z,98225.22
2023-02-11T18:16:31.550Z,98216.53
2023-02-11T18:18:59.237Z,98213.06
2023-02-11T18:21:26.620Z,98202.66
2023-02-11T18:23:54.284Z,98192.28
2023-02-11T18:26:22.408Z,98190.59
2023-02-11T18:28:53.082Z,98168.19
2023-02-11T18:31:22.424Z,98170.63
2023-02-11T18:33:50.118Z,98154.47
2023-02-11T18:36:17.681Z,98015.03
2023-02-11T18:38:45.335Z,98164.47
2023-02-11T18:41:14.043Z,98156.81
2023-02-11T18:43:43.252Z,98177.56
2023-02-11T18:46:14.004Z,98153.25
2023-02-11T18:48:42.023Z,98148.06
2023-02-11T18:51:12.888Z,98145.41
2023-02-11T18:53:40.796Z,98113.59
2023-02-11T18:56:14.284Z,97990.63
2023-02-11T18:58:42.302Z,98136.69
2023-02-11T19:01:15.569Z,98112.63
2023-02-11T19:03:52.197Z,98058.91
2023-02-11T19:06:24.993Z,98114.28
2023-02-11T19:08:55.531Z,98097.94
2023-02-11T19:11:45.165Z,98130.44
2023-02-11T19:14:13.515Z,98116.69
2023-02-11T19:16:43.649Z,98111.59
2023-02-11T19:19:11.003Z,98115.00
2023-02-11T19:21:39.112Z,98091.66
2023-02-11T19:24:08.185Z,98087.41
2023-02-11T19:26:36.945Z,98090.69
2023-02-11T19:29:05.730Z,98087.34
2023-02-11T19:31:33.977Z,98079.34
2023-02-11T19:34:03.274Z,98085.31
2023-02-11T19:36:31.264Z,98087.00
2023-02-11T19:39:03.745Z,98074.22
2023-02-11T19:41:32.070Z,97956.56
2023-02-11T19:44:00.635Z,98073.28
2023-02-11T19:46:30.494Z,98074.28
2023-02-11T19:49:00.000Z,98076.72
2023-02-11T19:51:28.438Z,98046.69
2023-02-11T19:53:56.023Z,98078.31
2023-02-11T19:56:23.713Z,98068.72
2023-02-11T19:58:51.371Z,98072.19
2023-02-11T20:01:21.776Z,98050.72
2023-02-11T20:03:54.998Z,97890.34
2023-02-11T20:06:25.468Z,98064.28
2023-02-11T20:09:02.674Z,98062.41
2023-02-11T20:11:34.393Z,98059.00
2023-02-11T20:14:03.653Z,98045.19
2023-02-11T20:16:46.900Z,98025.66
2023-02-11T20:19:18.491Z,97947.16
2023-02-11T20:21:47.813Z,97943.72
2023-02-11T20:24:17.869Z,97983.44
2023-02-11T20:26:48.579Z,98025.19
2023-02-11T20:29:17.978Z,97933.94
2023-02-11T20:31:45.797Z,97939.00
2023-02-11T20:34:13.753Z,98019.91
2023-02-11T20:36:41.533Z,98010.41
2023-02-11T20:39:11.132Z,98010.31
2023-02-11T20:41:41.840Z,97953.19
2023-02-11T20:44:11.262Z,97927.72
2023-02-11T20:46:42.084Z,97997.44
2023-02-11T20:49:14.755Z,98004.41
2023-02-11T20:51:43.035Z,97998.28
2023-02-11T20:54:16.068Z,97911.47
2023-02-11T20:56:46.783Z,97982.03
2023-02-11T20:59:16.804Z,97981.97
2023-02-11T21:01:47.432Z,97975.13
2023-02-11T21:04:17.588Z,98000.63
2023-02-11T21:06:53.862Z,98002.44
2023-02-11T21:09:24.870Z,97998.03
2023-02-11T21:11:53.908Z,98003.88
2023-02-11T21:14:24.195Z,97993.38
2023-02-11T21:16:52.148Z,97942.22
2023-02-11T21:19:20.469Z,97989.09
2023-02-11T21:21:48.689Z,97988.16
2023-02-11T21:24:16.398Z,97989.09
2023-02-11T21:26:43.997Z,97999.41
2023-02-11T21:29:12.252Z,97986.34
2023-02-11T21:31:40.633Z,97898.53
2023-02-11T21:34:08.359Z,97973.22
2023-02-11T21:36:35.976Z,97974.91
2023-02-11T21:39:04.293Z,97976.66
2023-02-11T21:41:32.308Z,97854.13
2023-02-11T21:44:00.294Z,97964.75
2023-02-11T21:46:28.322Z,97974.88
2023-02-11T21:48:55.643Z,97967.88
2023-02-11T21:51:25.237Z,97961.28
2023-02-11T21:53:58.522Z,97975.56
2023-02-11T21:56:29.925Z,97997.16
2023-02-11T21:58:59.574Z,97969.44
2023-02-11T22:01:33.260Z,97972.94
2023-02-11T22:04:00.815Z,97859.50
2023-02-11T22:06:31.227Z,97977.22
2023-02-11T22:09:02.110Z,97971.94
2023-02-11T22:11:29.589Z,97954.69
2023-02-11T22:13:58.054Z,97966.44
2023-02-11T22:16:26.527Z,97956.22
2023-02-11T22:18:54.279Z,97796.38
2023-02-11T22:21:23.179Z,97965.19
2023-02-11T22:23:51.889Z,97938.97
2023-02-11T22:26:21.902Z,97966.63
2023-02-11T22:28:51.256Z,97953.59
2023-02-11T22:31:25.303Z,97949.19
2023-02-11T22:33:53.293Z,97885.34
2023-02-11T22:36:28.007Z,97960.16
2023-02-11T22:38:55.862Z,97958.34
2023-02-11T22:41:24.617Z,97953.13
2023-02-11T22:43:52.226Z,97953.25
2023-02-11T22:46:20.742Z,97884.25
2023-02-11T22:48:49.825Z,97874.09
2023-02-11T22:51:23.856Z,97977.06
2023-02-11T22:53:59.274Z,97971.00
2023-02-11T22:56:28.673Z,97973.72
2023-02-11T22:59:05.112Z,97978.91
2023-02-11T23:01:33.003Z,97975.75
2023-02-11T23:04:02.635Z,97980.75
2023-02-11T23:06:30.251Z,97991.72
2023-02-11T23:08:58.129Z,97970.09
2023-02-11T23:11:29.154Z,97985.44
2023-02-11T23:13:56.829Z,97981.91
2023-02-11T23:16:27.226Z,97987.13
2023-02-11T23:18:55.356Z,97994.00
2023-02-11T23:21:27.630Z,97987.09
2023-02-11T23:24:04.584Z,97980.88
2023-02-11T23:26:32.573Z,97997.31
2023-02-11T23:29:00.674Z,97997.25
2023-02-11T23:31:34.365Z,97994.78
2023-02-11T23:34:02.313Z,97922.28
2023-02-11T23:36:29.978Z,98010.13
2023-02-11T23:38:57.785Z,98010.22
2023-02-11T23:41:26.598Z,98012.00
2023-02-11T23:43:56.278Z,98016.34
2023-02-11T23:46:26.026Z,97937.13
2023-02-11T23:48:54.131Z,98016.13
2023-02-11T23:51:22.475Z,98024.06
2023-02-11T23:53:51.249Z,98018.03
2023-02-11T23:56:22.205Z,98021.59
2023-02-11T23:58:50.949Z,98025.94
